sensor_id;sensor_type;location;lat;lon;timestamp;P1;durP1;ratioP1;P2;durP2;ratioP2
53519;SDS011;39397;53.204;5.778;2023-12-14T00:00:20;9.68;;;4.85;;
53519;SDS011;39397;53.204;5.778;2023-12-14T00:02:46;11.25;;;6.03;;
53519;SDS011;39397;53.204;5.778;2023-12-14T00:05:12;11.48;;;5.18;;
53519;SDS011;39397;53.204;5.778;2023-12-14T00:07:38;8.77;;;4.20;;
53519;SDS011;39397;53.204;5.778;2023-12-14T00:10:04;10.05;;;4.80;;
53519;SDS011;39397;53.204;5.778;2023-12-14T00:12:30;10.40;;;4.80;;
53519;SDS011;39397;53.204;5.778;2023-12-14T00:14:56;10.68;;;4.65;;
53519;SDS011;39397;53.204;5.778;2023-12-14T00:17:22;10.48;;;4.57;;
53519;SDS011;39397;53.204;5.778;2023-12-14T00:19:48;8.73;;;4.53;;
53519;SDS011;39397;53.204;5.778;2023-12-14T00:22:13;9.27;;;4.63;;
53519;SDS011;39397;53.204;5.778;2023-12-14T00:24:39;12.68;;;4.80;;
53519;SDS011;39397;53.204;5.778;2023-12-14T00:27:05;9.85;;;4.38;;
53519;SDS011;39397;53.204;5.778;2023-12-14T00:29:30;9.80;;;4.53;;
53519;SDS011;39397;53.204;5.778;2023-12-14T00:31:56;10.55;;;4.55;;
53519;SDS011;39397;53.204;5.778;2023-12-14T00:34:22;11.77;;;4.78;;
53519;SDS011;39397;53.204;5.778;2023-12-14T00:36:47;10.75;;;4.15;;
53519;SDS011;39397;53.204;5.778;2023-12-14T00:39:13;10.10;;;4.25;;
53519;SDS011;39397;53.204;5.778;2023-12-14T00:41:39;8.45;;;4.20;;
53519;SDS011;39397;53.204;5.778;2023-12-14T00:44:04;6.43;;;4.05;;
53519;SDS011;39397;53.204;5.778;2023-12-14T00:46:30;7.85;;;3.80;;
53519;SDS011;39397;53.204;5.778;2023-12-14T00:48:56;8.00;;;3.58;;
53519;SDS011;39397;53.204;5.778;2023-12-14T00:51:21;7.50;;;3.88;;
53519;SDS011;39397;53.204;5.778;2023-12-14T00:53:47;8.73;;;4.45;;
53519;SDS011;39397;53.204;5.778;2023-12-14T00:56:13;7.10;;;3.85;;
53519;SDS011;39397;53.204;5.778;2023-12-14T00:58:38;8.25;;;3.90;;
53519;SDS011;39397;53.204;5.778;2023-12-14T01:01:04;8.25;;;3.88;;
53519;SDS011;39397;53.204;5.778;2023-12-14T01:03:30;10.30;;;4.47;;
53519;SDS011;39397;53.204;5.778;2023-12-14T01:05:56;10.07;;;4.15;;
53519;SDS011;39397;53.204;5.778;2023-12-14T01:08:21;7.18;;;3.92;;
53519;SDS011;39397;53.204;5.778;2023-12-14T01:10:47;7.70;;;4.13;;
53519;SDS011;39397;53.204;5.778;2023-12-14T01:13:13;6.93;;;3.92;;
53519;SDS011;39397;53.204;5.778;2023-12-14T01:15:38;7.85;;;4.28;;
53519;SDS011;39397;53.204;5.778;2023-12-14T01:18:04;9.43;;;4.50;;
53519;SDS011;39397;53.204;5.778;2023-12-14T01:20:30;7.32;;;3.88;;
53519;SDS011;39397;53.204;5.778;2023-12-14T01:22:55;9.40;;;4.25;;
53519;SDS011;39397;53.204;5.778;2023-12-14T01:25:21;6.22;;;3.60;;
53519;SDS011;39397;53.204;5.778;2023-12-14T01:27:47;8.48;;;3.95;;
53519;SDS011;39397;53.204;5.778;2023-12-14T01:30:12;8.50;;;3.67;;
53519;SDS011;39397;53.204;5.778;2023-12-14T01:32:38;6.63;;;3.70;;
53519;SDS011;39397;53.204;5.778;2023-12-14T01:35:04;7.22;;;3.72;;
53519;SDS011;39397;53.204;5.778;2023-12-14T01:37:30;8.90;;;3.83;;
53519;SDS011;39397;53.204;5.778;2023-12-14T01:39:55;8.43;;;4.32;;
53519;SDS011;39397;53.204;5.778;2023-12-14T01:42:21;6.18;;;3.92;;
53519;SDS011;39397;53.204;5.778;2023-12-14T01:44:47;9.20;;;4.03;;
53519;SDS011;39397;53.204;5.778;2023-12-14T01:47:12;9.15;;;4.63;;
53519;SDS011;39397;53.204;5.778;2023-12-14T01:49:38;7.80;;;4.20;;
53519;SDS011;39397;53.204;5.778;2023-12-14T01:52:06;8.00;;;4.00;;
53519;SDS011;39397;53.204;5.778;2023-12-14T01:54:32;11.13;;;4.38;;
53519;SDS011;39397;53.204;5.778;2023-12-14T01:56:58;8.30;;;4.18;;
53519;SDS011;39397;53.204;5.778;2023-12-14T01:59:24;12.10;;;4.93;;
53519;SDS011;39397;53.204;5.778;2023-12-14T02:01:53;12.40;;;4.93;;
53519;SDS011;39397;53.204;5.778;2023-12-14T02:04:21;8.52;;;4.40;;
53519;SDS011;39397;53.204;5.778;2023-12-14T02:06:48;11.18;;;4.88;;
53519;SDS011;39397;53.204;5.778;2023-12-14T02:09:14;11.07;;;4.88;;
53519;SDS011;39397;53.204;5.778;2023-12-14T02:11:40;13.93;;;5.90;;
53519;SDS011;39397;53.204;5.778;2023-12-14T02:14:06;11.85;;;4.85;;
53519;SDS011;39397;53.204;5.778;2023-12-14T02:16:34;11.02;;;5.38;;
53519;SDS011;39397;53.204;5.778;2023-12-14T02:19:03;9.80;;;5.28;;
53519;SDS011;39397;53.204;5.778;2023-12-14T02:21:29;12.80;;;4.93;;
53519;SDS011;39397;53.204;5.778;2023-12-14T02:23:55;10.98;;;5.63;;
53519;SDS011;39397;53.204;5.778;2023-12-14T02:26:21;11.15;;;4.43;;
53519;SDS011;39397;53.204;5.778;2023-12-14T02:28:46;9.68;;;5.10;;
53519;SDS011;39397;53.204;5.778;2023-12-14T02:31:12;10.13;;;5.28;;
53519;SDS011;39397;53.204;5.778;2023-12-14T02:33:38;11.38;;;5.88;;
53519;SDS011;39397;53.204;5.778;2023-12-14T02:36:04;11.18;;;5.00;;
53519;SDS011;39397;53.204;5.778;2023-12-14T02:38:30;12.95;;;5.78;;
53519;SDS011;39397;53.204;5.778;2023-12-14T02:40:55;10.75;;;5.50;;
53519;SDS011;39397;53.204;5.778;2023-12-14T02:43:21;13.18;;;5.72;;
53519;SDS011;39397;53.204;5.778;2023-12-14T02:45:48;10.70;;;4.80;;
53519;SDS011;39397;53.204;5.778;2023-12-14T02:48:14;9.30;;;5.10;;
53519;SDS011;39397;53.204;5.778;2023-12-14T02:50:40;11.75;;;5.53;;
53519;SDS011;39397;53.204;5.778;2023-12-14T02:53:06;13.23;;;5.40;;
53519;SDS011;39397;53.204;5.778;2023-12-14T02:55:31;10.10;;;5.20;;
53519;SDS011;39397;53.204;5.778;2023-12-14T02:57:57;11.45;;;5.70;;
53519;SDS011;39397;53.204;5.778;2023-12-14T03:00:23;10.90;;;5.03;;
53519;SDS011;39397;53.204;5.778;2023-12-14T03:02:48;10.88;;;6.22;;
53519;SDS011;39397;53.204;5.778;2023-12-14T03:05:14;8.95;;;5.50;;
53519;SDS011;39397;53.204;5.778;2023-12-14T03:07:40;12.88;;;6.15;;
53519;SDS011;39397;53.204;5.778;2023-12-14T03:10:06;13.50;;;5.63;;
53519;SDS011;39397;53.204;5.778;2023-12-14T03:12:32;12.13;;;5.22;;
53519;SDS011;39397;53.204;5.778;2023-12-14T03:14:58;9.57;;;5.45;;
53519;SDS011;39397;53.204;5.778;2023-12-14T03:17:23;10.20;;;5.63;;
53519;SDS011;39397;53.204;5.778;2023-12-14T03:19:49;9.95;;;5.07;;
53519;SDS011;39397;53.204;5.778;2023-12-14T03:22:15;13.45;;;5.38;;
53519;SDS011;39397;53.204;5.778;2023-12-14T03:24:41;10.93;;;6.03;;
53519;SDS011;39397;53.204;5.778;2023-12-14T03:27:07;12.70;;;5.65;;
53519;SDS011;39397;53.204;5.778;2023-12-14T03:29:33;15.48;;;7.50;;
53519;SDS011;39397;53.204;5.778;2023-12-14T03:31:58;13.35;;;6.75;;
53519;SDS011;39397;53.204;5.778;2023-12-14T03:34:24;17.95;;;6.88;;
53519;SDS011;39397;53.204;5.778;2023-12-14T03:36:50;10.48;;;5.80;;
53519;SDS011;39397;53.204;5.778;2023-12-14T03:39:16;12.93;;;6.68;;
53519;SDS011;39397;53.204;5.778;2023-12-14T03:41:42;16.77;;;6.47;;
53519;SDS011;39397;53.204;5.778;2023-12-14T03:44:08;13.00;;;6.40;;
53519;SDS011;39397;53.204;5.778;2023-12-14T03:46:34;12.40;;;6.20;;
53519;SDS011;39397;53.204;5.778;2023-12-14T03:49:00;13.70;;;6.70;;
53519;SDS011;39397;53.204;5.778;2023-12-14T03:51:26;15.02;;;6.90;;
53519;SDS011;39397;53.204;5.778;2023-12-14T03:53:52;18.38;;;6.95;;
53519;SDS011;39397;53.204;5.778;2023-12-14T03:56:17;14.27;;;7.60;;
53519;SDS011;39397;53.204;5.778;2023-12-14T03:58:43;19.63;;;7.68;;
53519;SDS011;39397;53.204;5.778;2023-12-14T04:01:15;14.25;;;6.95;;
53519;SDS011;39397;53.204;5.778;2023-12-14T04:03:45;14.38;;;7.35;;
53519;SDS011;39397;53.204;5.778;2023-12-14T04:06:14;17.40;;;7.90;;
53519;SDS011;39397;53.204;5.778;2023-12-14T04:08:43;13.23;;;6.68;;
53519;SDS011;39397;53.204;5.778;2023-12-14T04:11:09;17.02;;;7.68;;
53519;SDS011;39397;53.204;5.778;2023-12-14T04:13:34;15.80;;;6.72;;
53519;SDS011;39397;53.204;5.778;2023-12-14T04:16:00;12.85;;;6.53;;
53519;SDS011;39397;53.204;5.778;2023-12-14T04:18:26;10.77;;;5.78;;
53519;SDS011;39397;53.204;5.778;2023-12-14T04:20:52;12.13;;;5.50;;
53519;SDS011;39397;53.204;5.778;2023-12-14T04:23:17;13.15;;;6.80;;
53519;SDS011;39397;53.204;5.778;2023-12-14T04:25:44;15.35;;;6.30;;
53519;SDS011;39397;53.204;5.778;2023-12-14T04:28:09;14.48;;;6.60;;
53519;SDS011;39397;53.204;5.778;2023-12-14T04:30:35;15.32;;;6.45;;
53519;SDS011;39397;53.204;5.778;2023-12-14T04:33:01;18.08;;;7.18;;
53519;SDS011;39397;53.204;5.778;2023-12-14T04:35:27;11.98;;;6.78;;
53519;SDS011;39397;53.204;5.778;2023-12-14T04:37:52;15.02;;;6.50;;
53519;SDS011;39397;53.204;5.778;2023-12-14T04:40:18;16.80;;;6.45;;
53519;SDS011;39397;53.204;5.778;2023-12-14T04:42:44;13.88;;;6.97;;
53519;SDS011;39397;53.204;5.778;2023-12-14T04:45:09;12.82;;;6.97;;
53519;SDS011;39397;53.204;5.778;2023-12-14T04:47:35;16.05;;;7.20;;
53519;SDS011;39397;53.204;5.778;2023-12-14T04:50:02;18.67;;;7.18;;
53519;SDS011;39397;53.204;5.778;2023-12-14T04:52:28;13.02;;;7.13;;
53519;SDS011;39397;53.204;5.778;2023-12-14T04:54:53;17.45;;;7.97;;
53519;SDS011;39397;53.204;5.778;2023-12-14T04:57:19;15.75;;;7.18;;
53519;SDS011;39397;53.204;5.778;2023-12-14T04:59:45;15.50;;;6.93;;
53519;SDS011;39397;53.204;5.778;2023-12-14T05:02:10;14.27;;;6.75;;
53519;SDS011;39397;53.204;5.778;2023-12-14T05:04:36;14.80;;;6.53;;
53519;SDS011;39397;53.204;5.778;2023-12-14T05:07:02;18.20;;;7.20;;
53519;SDS011;39397;53.204;5.778;2023-12-14T05:09:27;12.45;;;7.18;;
53519;SDS011;39397;53.204;5.778;2023-12-14T05:11:53;19.10;;;7.90;;
53519;SDS011;39397;53.204;5.778;2023-12-14T05:14:19;15.00;;;7.93;;
53519;SDS011;39397;53.204;5.778;2023-12-14T05:16:45;12.93;;;7.72;;
53519;SDS011;39397;53.204;5.778;2023-12-14T05:19:11;15.35;;;7.55;;
53519;SDS011;39397;53.204;5.778;2023-12-14T05:21:37;12.10;;;7.18;;
53519;SDS011;39397;53.204;5.778;2023-12-14T05:24:03;13.88;;;7.22;;
53519;SDS011;39397;53.204;5.778;2023-12-14T05:26:30;15.82;;;7.03;;
53519;SDS011;39397;53.204;5.778;2023-12-14T05:28:55;14.82;;;6.57;;
53519;SDS011;39397;53.204;5.778;2023-12-14T05:31:21;17.95;;;7.28;;
53519;SDS011;39397;53.204;5.778;2023-12-14T05:33:47;14.35;;;7.15;;
53519;SDS011;39397;53.204;5.778;2023-12-14T05:36:12;17.05;;;6.93;;
53519;SDS011;39397;53.204;5.778;2023-12-14T05:38:39;16.98;;;7.85;;
53519;SDS011;39397;53.204;5.778;2023-12-14T05:41:05;17.92;;;8.30;;
53519;SDS011;39397;53.204;5.778;2023-12-14T05:43:31;12.68;;;7.22;;
53519;SDS011;39397;53.204;5.778;2023-12-14T05:45:57;12.43;;;7.82;;
53519;SDS011;39397;53.204;5.778;2023-12-14T05:48:23;17.05;;;7.85;;
53519;SDS011;39397;53.204;5.778;2023-12-14T05:50:50;17.45;;;7.45;;
53519;SDS011;39397;53.204;5.778;2023-12-14T05:53:16;14.75;;;8.02;;
53519;SDS011;39397;53.204;5.778;2023-12-14T05:55:42;14.70;;;7.40;;
53519;SDS011;39397;53.204;5.778;2023-12-14T05:58:08;16.35;;;7.53;;
53519;SDS011;39397;53.204;5.778;2023-12-14T06:00:33;18.75;;;7.25;;
53519;SDS011;39397;53.204;5.778;2023-12-14T06:03:00;13.90;;;6.97;;
53519;SDS011;39397;53.204;5.778;2023-12-14T06:05:27;14.25;;;7.65;;
53519;SDS011;39397;53.204;5.778;2023-12-14T06:07:52;13.13;;;6.82;;
53519;SDS011;39397;53.204;5.778;2023-12-14T06:10:18;13.68;;;7.00;;
53519;SDS011;39397;53.204;5.778;2023-12-14T06:12:44;14.25;;;7.40;;
53519;SDS011;39397;53.204;5.778;2023-12-14T06:15:10;17.83;;;7.72;;
53519;SDS011;39397;53.204;5.778;2023-12-14T06:17:36;13.93;;;7.13;;
53519;SDS011;39397;53.204;5.778;2023-12-14T06:20:04;14.57;;;6.75;;
53519;SDS011;39397;53.204;5.778;2023-12-14T06:22:33;12.55;;;7.30;;
53519;SDS011;39397;53.204;5.778;2023-12-14T06:25:01;15.00;;;6.72;;
53519;SDS011;39397;53.204;5.778;2023-12-14T06:27:28;14.38;;;6.65;;
53519;SDS011;39397;53.204;5.778;2023-12-14T06:29:54;12.60;;;6.72;;
53519;SDS011;39397;53.204;5.778;2023-12-14T06:32:19;13.75;;;7.28;;
53519;SDS011;39397;53.204;5.778;2023-12-14T06:34:45;13.88;;;6.70;;
53519;SDS011;39397;53.204;5.778;2023-12-14T06:37:11;19.00;;;7.20;;
53519;SDS011;39397;53.204;5.778;2023-12-14T06:39:36;17.10;;;6.95;;
53519;SDS011;39397;53.204;5.778;2023-12-14T06:42:02;14.15;;;6.88;;
53519;SDS011;39397;53.204;5.778;2023-12-14T06:44:28;15.75;;;7.60;;
53519;SDS011;39397;53.204;5.778;2023-12-14T06:46:55;13.15;;;6.82;;
53519;SDS011;39397;53.204;5.778;2023-12-14T06:49:23;10.77;;;6.70;;
53519;SDS011;39397;53.204;5.778;2023-12-14T06:51:50;12.73;;;7.10;;
53519;SDS011;39397;53.204;5.778;2023-12-14T06:54:15;12.13;;;7.55;;
53519;SDS011;39397;53.204;5.778;2023-12-14T06:56:41;12.98;;;6.55;;
53519;SDS011;39397;53.204;5.778;2023-12-14T06:59:07;13.25;;;6.57;;
53519;SDS011;39397;53.204;5.778;2023-12-14T07:01:33;14.32;;;6.80;;
53519;SDS011;39397;53.204;5.778;2023-12-14T07:03:58;16.08;;;6.43;;
53519;SDS011;39397;53.204;5.778;2023-12-14T07:06:24;17.60;;;7.00;;
53519;SDS011;39397;53.204;5.778;2023-12-14T07:08:50;15.13;;;6.55;;
53519;SDS011;39397;53.204;5.778;2023-12-14T07:11:16;13.95;;;6.35;;
53519;SDS011;39397;53.204;5.778;2023-12-14T07:13:42;16.35;;;7.07;;
53519;SDS011;39397;53.204;5.778;2023-12-14T07:16:09;12.07;;;6.60;;
53519;SDS011;39397;53.204;5.778;2023-12-14T07:18:40;12.20;;;6.00;;
53519;SDS011;39397;53.204;5.778;2023-12-14T07:21:07;17.17;;;7.10;;
53519;SDS011;39397;53.204;5.778;2023-12-14T07:23:34;12.13;;;6.50;;
53519;SDS011;39397;53.204;5.778;2023-12-14T07:26:01;13.85;;;6.47;;
53519;SDS011;39397;53.204;5.778;2023-12-14T07:28:29;13.13;;;5.80;;
53519;SDS011;39397;53.204;5.778;2023-12-14T07:30:55;18.45;;;6.90;;
53519;SDS011;39397;53.204;5.778;2023-12-14T07:33:20;19.23;;;7.95;;
53519;SDS011;39397;53.204;5.778;2023-12-14T07:35:46;13.73;;;6.53;;
53519;SDS011;39397;53.204;5.778;2023-12-14T07:38:12;15.57;;;6.78;;
53519;SDS011;39397;53.204;5.778;2023-12-14T07:40:38;15.18;;;6.75;;
53519;SDS011;39397;53.204;5.778;2023-12-14T07:43:04;15.75;;;6.45;;
53519;SDS011;39397;53.204;5.778;2023-12-14T07:45:30;13.35;;;6.03;;
53519;SDS011;39397;53.204;5.778;2023-12-14T07:47:56;14.52;;;6.88;;
53519;SDS011;39397;53.204;5.778;2023-12-14T07:50:21;15.40;;;7.15;;
53519;SDS011;39397;53.204;5.778;2023-12-14T07:52:47;15.85;;;6.45;;
53519;SDS011;39397;53.204;5.778;2023-12-14T07:55:13;15.15;;;7.30;;
53519;SDS011;39397;53.204;5.778;2023-12-14T07:57:39;17.02;;;7.57;;
53519;SDS011;39397;53.204;5.778;2023-12-14T08:00:05;19.52;;;9.27;;
53519;SDS011;39397;53.204;5.778;2023-12-14T08:02:33;23.55;;;8.73;;
53519;SDS011;39397;53.204;5.778;2023-12-14T08:04:59;16.92;;;7.97;;
53519;SDS011;39397;53.204;5.778;2023-12-14T08:07:25;16.67;;;7.90;;
53519;SDS011;39397;53.204;5.778;2023-12-14T08:09:54;14.90;;;8.02;;
53519;SDS011;39397;53.204;5.778;2023-12-14T08:12:20;12.65;;;6.50;;
53519;SDS011;39397;53.204;5.778;2023-12-14T08:14:47;12.75;;;7.05;;
53519;SDS011;39397;53.204;5.778;2023-12-14T08:17:13;15.48;;;6.50;;
53519;SDS011;39397;53.204;5.778;2023-12-14T08:19:38;13.10;;;7.25;;
53519;SDS011;39397;53.204;5.778;2023-12-14T08:22:04;15.07;;;7.05;;
53519;SDS011;39397;53.204;5.778;2023-12-14T08:24:30;12.38;;;7.07;;
53519;SDS011;39397;53.204;5.778;2023-12-14T08:26:55;13.05;;;7.13;;
53519;SDS011;39397;53.204;5.778;2023-12-14T08:29:21;14.43;;;7.00;;
53519;SDS011;39397;53.204;5.778;2023-12-14T08:31:47;14.20;;;6.72;;
53519;SDS011;39397;53.204;5.778;2023-12-14T08:34:13;12.07;;;6.40;;
53519;SDS011;39397;53.204;5.778;2023-12-14T08:36:39;15.10;;;7.40;;
53519;SDS011;39397;53.204;5.778;2023-12-14T08:39:05;14.88;;;7.95;;
53519;SDS011;39397;53.204;5.778;2023-12-14T08:41:31;15.15;;;7.30;;
53519;SDS011;39397;53.204;5.778;2023-12-14T08:43:57;15.88;;;7.57;;
53519;SDS011;39397;53.204;5.778;2023-12-14T08:46:23;14.45;;;7.90;;
53519;SDS011;39397;53.204;5.778;2023-12-14T08:48:49;15.77;;;7.82;;
53519;SDS011;39397;53.204;5.778;2023-12-14T08:51:14;13.45;;;7.47;;
53519;SDS011;39397;53.204;5.778;2023-12-14T08:53:40;14.20;;;7.35;;
53519;SDS011;39397;53.204;5.778;2023-12-14T08:56:06;18.90;;;8.02;;
53519;SDS011;39397;53.204;5.778;2023-12-14T08:58:33;13.32;;;8.05;;
53519;SDS011;39397;53.204;5.778;2023-12-14T09:00:59;14.40;;;7.90;;
53519;SDS011;39397;53.204;5.778;2023-12-14T09:03:25;12.65;;;8.32;;
53519;SDS011;39397;53.204;5.778;2023-12-14T09:05:51;13.10;;;7.70;;
53519;SDS011;39397;53.204;5.778;2023-12-14T09:08:17;16.88;;;9.23;;
53519;SDS011;39397;53.204;5.778;2023-12-14T09:10:43;14.48;;;7.55;;
53519;SDS011;39397;53.204;5.778;2023-12-14T09:13:09;14.30;;;7.93;;
53519;SDS011;39397;53.204;5.778;2023-12-14T09:15:35;16.83;;;8.10;;
53519;SDS011;39397;53.204;5.778;2023-12-14T09:18:01;16.00;;;8.32;;
53519;SDS011;39397;53.204;5.778;2023-12-14T09:20:27;13.02;;;7.70;;
53519;SDS011;39397;53.204;5.778;2023-12-14T09:22:53;13.70;;;8.40;;
53519;SDS011;39397;53.204;5.778;2023-12-14T09:25:19;13.60;;;7.50;;
53519;SDS011;39397;53.204;5.778;2023-12-14T09:27:45;13.98;;;7.97;;
53519;SDS011;39397;53.204;5.778;2023-12-14T09:30:11;15.73;;;7.88;;
53519;SDS011;39397;53.204;5.778;2023-12-14T09:32:37;14.88;;;8.23;;
53519;SDS011;39397;53.204;5.778;2023-12-14T09:35:05;12.32;;;7.75;;
53519;SDS011;39397;53.204;5.778;2023-12-14T09:37:31;13.57;;;6.82;;
53519;SDS011;39397;53.204;5.778;2023-12-14T09:39:57;11.38;;;6.88;;
53519;SDS011;39397;53.204;5.778;2023-12-14T09:42:23;13.90;;;7.80;;
53519;SDS011;39397;53.204;5.778;2023-12-14T09:44:49;12.23;;;7.45;;
53519;SDS011;39397;53.204;5.778;2023-12-14T09:47:16;11.52;;;6.80;;
53519;SDS011;39397;53.204;5.778;2023-12-14T09:49:41;12.75;;;7.15;;
53519;SDS011;39397;53.204;5.778;2023-12-14T09:52:10;12.88;;;6.38;;
53519;SDS011;39397;53.204;5.778;2023-12-14T09:54:36;12.93;;;7.25;;
53519;SDS011;39397;53.204;5.778;2023-12-14T09:57:02;15.05;;;7.57;;
53519;SDS011;39397;53.204;5.778;2023-12-14T09:59:28;14.50;;;6.57;;
53519;SDS011;39397;53.204;5.778;2023-12-14T10:01:58;12.82;;;6.40;;
53519;SDS011;39397;53.204;5.778;2023-12-14T10:04:37;12.23;;;6.63;;
53519;SDS011;39397;53.204;5.778;2023-12-14T10:07:03;11.98;;;6.35;;
53519;SDS011;39397;53.204;5.778;2023-12-14T10:09:32;14.27;;;6.72;;
53519;SDS011;39397;53.204;5.778;2023-12-14T10:12:05;14.55;;;7.55;;
53519;SDS011;39397;53.204;5.778;2023-12-14T10:14:33;11.80;;;7.38;;
53519;SDS011;39397;53.204;5.778;2023-12-14T10:17:13;12.07;;;7.38;;
53519;SDS011;39397;53.204;5.778;2023-12-14T10:19:46;11.80;;;7.15;;
53519;SDS011;39397;53.204;5.778;2023-12-14T10:22:16;11.65;;;6.78;;
53519;SDS011;39397;53.204;5.778;2023-12-14T10:24:48;13.13;;;7.45;;
53519;SDS011;39397;53.204;5.778;2023-12-14T10:27:15;14.60;;;7.85;;
53519;SDS011;39397;53.204;5.778;2023-12-14T10:29:41;15.80;;;7.18;;
53519;SDS011;39397;53.204;5.778;2023-12-14T10:32:09;15.20;;;7.10;;
53519;SDS011;39397;53.204;5.778;2023-12-14T10:34:36;11.45;;;6.75;;
53519;SDS011;39397;53.204;5.778;2023-12-14T10:37:04;14.25;;;6.75;;
53519;SDS011;39397;53.204;5.778;2023-12-14T10:39:31;12.68;;;7.30;;
53519;SDS011;39397;53.204;5.778;2023-12-14T10:42:03;13.32;;;7.45;;
53519;SDS011;39397;53.204;5.778;2023-12-14T10:44:32;10.88;;;6.18;;
53519;SDS011;39397;53.204;5.778;2023-12-14T10:47:01;12.90;;;7.18;;
53519;SDS011;39397;53.204;5.778;2023-12-14T10:49:29;13.00;;;6.80;;
53519;SDS011;39397;53.204;5.778;2023-12-14T10:51:56;12.65;;;7.00;;
53519;SDS011;39397;53.204;5.778;2023-12-14T10:54:24;17.65;;;6.57;;
53519;SDS011;39397;53.204;5.778;2023-12-14T10:56:57;10.60;;;6.60;;
53519;SDS011;39397;53.204;5.778;2023-12-14T10:59:24;12.93;;;7.40;;
53519;SDS011;39397;53.204;5.778;2023-12-14T11:01:53;11.93;;;7.38;;
53519;SDS011;39397;53.204;5.778;2023-12-14T11:04:22;14.80;;;8.30;;
53519;SDS011;39397;53.204;5.778;2023-12-14T11:06:49;10.88;;;7.18;;
53519;SDS011;39397;53.204;5.778;2023-12-14T11:09:16;14.73;;;7.97;;
53519;SDS011;39397;53.204;5.778;2023-12-14T11:14:19;14.57;;;7.05;;
53519;SDS011;39397;53.204;5.778;2023-12-14T11:16:47;13.02;;;7.60;;
53519;SDS011;39397;53.204;5.778;2023-12-14T11:24:42;12.15;;;6.88;;
53519;SDS011;39397;53.204;5.778;2023-12-14T11:27:15;12.77;;;7.07;;
53519;SDS011;39397;53.204;5.778;2023-12-14T11:29:54;14.00;;;8.02;;
53519;SDS011;39397;53.204;5.778;2023-12-14T11:32:21;11.90;;;7.28;;
53519;SDS011;39397;53.204;5.778;2023-12-14T11:34:47;11.75;;;7.05;;
53519;SDS011;39397;53.204;5.778;2023-12-14T11:37:12;11.55;;;7.00;;
53519;SDS011;39397;53.204;5.778;2023-12-14T11:39:38;14.38;;;7.47;;
53519;SDS011;39397;53.204;5.778;2023-12-14T11:42:05;13.60;;;7.53;;
53519;SDS011;39397;53.204;5.778;2023-12-14T11:44:35;13.82;;;6.97;;
53519;SDS011;39397;53.204;5.778;2023-12-14T11:47:02;13.48;;;7.80;;
53519;SDS011;39397;53.204;5.778;2023-12-14T11:49:28;14.07;;;7.18;;
53519;SDS011;39397;53.204;5.778;2023-12-14T11:51:54;13.70;;;7.78;;
53519;SDS011;39397;53.204;5.778;2023-12-14T11:54:21;13.88;;;8.27;;
53519;SDS011;39397;53.204;5.778;2023-12-14T11:56:47;12.95;;;6.50;;
53519;SDS011;39397;53.204;5.778;2023-12-14T11:59:17;12.32;;;6.80;;
53519;SDS011;39397;53.204;5.778;2023-12-14T12:01:57;15.25;;;7.60;;
53519;SDS011;39397;53.204;5.778;2023-12-14T12:04:24;10.85;;;6.35;;
53519;SDS011;39397;53.204;5.778;2023-12-14T12:06:58;14.68;;;7.05;;
53519;SDS011;39397;53.204;5.778;2023-12-14T12:09:33;14.02;;;7.00;;
53519;SDS011;39397;53.204;5.778;2023-12-14T12:12:11;12.35;;;6.35;;
53519;SDS011;39397;53.204;5.778;2023-12-14T12:14:38;11.05;;;6.53;;
53519;SDS011;39397;53.204;5.778;2023-12-14T12:17:05;12.55;;;6.47;;
53519;SDS011;39397;53.204;5.778;2023-12-14T12:19:32;12.15;;;6.95;;
53519;SDS011;39397;53.204;5.778;2023-12-14T12:21:58;10.80;;;7.57;;
53519;SDS011;39397;53.204;5.778;2023-12-14T12:24:23;17.95;;;6.35;;
53519;SDS011;39397;53.204;5.778;2023-12-14T12:26:49;12.48;;;6.97;;
53519;SDS011;39397;53.204;5.778;2023-12-14T12:29:15;8.95;;;5.70;;
53519;SDS011;39397;53.204;5.778;2023-12-14T12:31:41;10.68;;;6.22;;
53519;SDS011;39397;53.204;5.778;2023-12-14T12:34:08;8.70;;;5.55;;
53519;SDS011;39397;53.204;5.778;2023-12-14T12:36:34;12.00;;;5.68;;
53519;SDS011;39397;53.204;5.778;2023-12-14T12:39:01;10.77;;;5.82;;
53519;SDS011;39397;53.204;5.778;2023-12-14T12:41:28;12.45;;;5.47;;
53519;SDS011;39397;53.204;5.778;2023-12-14T12:43:54;8.43;;;5.43;;
53519;SDS011;39397;53.204;5.778;2023-12-14T12:46:19;10.13;;;5.80;;
53519;SDS011;39397;53.204;5.778;2023-12-14T12:48:45;11.93;;;5.80;;
53519;SDS011;39397;53.204;5.778;2023-12-14T12:51:12;13.63;;;6.20;;
53519;SDS011;39397;53.204;5.778;2023-12-14T12:53:37;11.93;;;6.07;;
53519;SDS011;39397;53.204;5.778;2023-12-14T12:56:04;14.38;;;6.75;;
53519;SDS011;39397;53.204;5.778;2023-12-14T12:58:30;12.88;;;5.63;;
53519;SDS011;39397;53.204;5.778;2023-12-14T13:00:55;10.85;;;6.30;;
53519;SDS011;39397;53.204;5.778;2023-12-14T13:03:22;10.07;;;6.20;;
53519;SDS011;39397;53.204;5.778;2023-12-14T13:05:48;11.05;;;5.82;;
53519;SDS011;39397;53.204;5.778;2023-12-14T13:08:13;9.07;;;5.43;;
53519;SDS011;39397;53.204;5.778;2023-12-14T13:10:39;12.43;;;6.55;;
53519;SDS011;39397;53.204;5.778;2023-12-14T13:13:05;10.07;;;5.57;;
53519;SDS011;39397;53.204;5.778;2023-12-14T13:15:33;11.95;;;6.40;;
53519;SDS011;39397;53.204;5.778;2023-12-14T13:18:00;13.50;;;5.90;;
53519;SDS011;39397;53.204;5.778;2023-12-14T13:20:26;11.10;;;5.80;;
53519;SDS011;39397;53.204;5.778;2023-12-14T13:22:51;10.45;;;5.88;;
53519;SDS011;39397;53.204;5.778;2023-12-14T13:25:18;11.20;;;6.03;;
53519;SDS011;39397;53.204;5.778;2023-12-14T13:27:44;9.93;;;6.30;;
53519;SDS011;39397;53.204;5.778;2023-12-14T13:30:10;11.20;;;6.32;;
53519;SDS011;39397;53.204;5.778;2023-12-14T13:32:41;10.48;;;6.57;;
53519;SDS011;39397;53.204;5.778;2023-12-14T13:35:07;10.20;;;6.65;;
53519;SDS011;39397;53.204;5.778;2023-12-14T13:37:34;11.60;;;6.90;;
53519;SDS011;39397;53.204;5.778;2023-12-14T13:40:00;11.40;;;6.72;;
53519;SDS011;39397;53.204;5.778;2023-12-14T13:42:25;11.20;;;6.57;;
53519;SDS011;39397;53.204;5.778;2023-12-14T13:44:51;13.73;;;6.10;;
53519;SDS011;39397;53.204;5.778;2023-12-14T13:47:17;10.93;;;6.20;;
53519;SDS011;39397;53.204;5.778;2023-12-14T13:49:42;11.50;;;6.60;;
53519;SDS011;39397;53.204;5.778;2023-12-14T13:52:08;12.60;;;6.65;;
53519;SDS011;39397;53.204;5.778;2023-12-14T13:54:34;12.75;;;6.38;;
53519;SDS011;39397;53.204;5.778;2023-12-14T13:57:01;10.73;;;5.97;;
53519;SDS011;39397;53.204;5.778;2023-12-14T13:59:27;13.05;;;7.65;;
53519;SDS011;39397;53.204;5.778;2023-12-14T14:01:53;12.02;;;6.50;;
53519;SDS011;39397;53.204;5.778;2023-12-14T14:04:19;11.07;;;6.55;;
53519;SDS011;39397;53.204;5.778;2023-12-14T14:06:44;12.32;;;7.20;;
53519;SDS011;39397;53.204;5.778;2023-12-14T14:09:11;11.00;;;6.03;;
53519;SDS011;39397;53.204;5.778;2023-12-14T14:11:37;9.82;;;6.15;;
53519;SDS011;39397;53.204;5.778;2023-12-14T14:14:06;11.38;;;6.70;;
53519;SDS011;39397;53.204;5.778;2023-12-14T14:16:32;11.63;;;7.35;;
53519;SDS011;39397;53.204;5.778;2023-12-14T14:18:57;14.70;;;7.68;;
53519;SDS011;39397;53.204;5.778;2023-12-14T14:21:23;14.50;;;7.53;;
53519;SDS011;39397;53.204;5.778;2023-12-14T14:23:49;13.23;;;7.60;;
53519;SDS011;39397;53.204;5.778;2023-12-14T14:26:15;13.48;;;7.32;;
53519;SDS011;39397;53.204;5.778;2023-12-14T14:28:40;11.77;;;6.82;;
53519;SDS011;39397;53.204;5.778;2023-12-14T14:31:06;13.55;;;7.22;;
53519;SDS011;39397;53.204;5.778;2023-12-14T14:33:32;12.98;;;7.45;;
53519;SDS011;39397;53.204;5.778;2023-12-14T14:35:57;12.57;;;6.93;;
53519;SDS011;39397;53.204;5.778;2023-12-14T14:38:23;12.30;;;7.00;;